Time;durP1;ratioP1;P1;durP2;ratioP2;P2;SDS_P1;SDS_P2;PMS_P1;PMS_P2;Temp;Humidity;BMP_temperature;BMP_pressure;BME280_temperature;BME280_humidity;BME280_pressure;Samples;Min_cycle;Max_cycle;Signal;HPM_P1;HPM_P2
2021/11/05 00:00:19;;;;;;;;;9.00;7.25;;;;;20.82;41.64;101347.81;4997527;28;45326;-60
2021/11/05 00:02:44;;;;;;;;;6.75;6.00;;;;;20.81;41.95;101346.13;4997076;28;47012;-61
2021/11/05 00:05:10;;;;;;;;;8.25;7.75;;;;;20.81;41.93;101347.88;4996897;28;45313;-61
2021/11/05 00:07:36;;;;;;;;;10.00;8.25;;;;;20.78;41.69;101355.97;4997369;28;45381;-56
2021/11/05 00:10:01;;;;;;;;;11.25;8.50;;;;;20.80;41.67;101356.72;4979693;28;45290;-58
2021/11/05 00:12:26;;;;;;;;;8.50;8.00;;;;;20.77;41.46;101355.09;4996988;28;46567;-60
2021/11/05 00:14:52;;;;;;;;;7.25;7.25;;;;;20.78;41.73;101361.22;4997379;28;45181;-61
2021/11/05 00:17:17;;;;;;;;;9.50;7.75;;;;;20.77;41.83;101357.72;4997010;28;45493;-58
2021/11/05 00:19:43;;;;;;;;;5.50;5.50;;;;;20.76;41.36;101361.28;4997256;28;45524;-47
2021/11/05 00:22:08;;;;;;;;;11.50;9.00;;;;;20.76;41.76;101358.66;4995416;28;47650;-59
2021/11/05 00:24:34;;;;;;;;;7.50;7.25;;;;;20.75;41.48;101371.91;4996878;28;45403;-53
2021/11/05 00:26:59;;;;;;;;;7.75;6.00;;;;;20.73;41.53;101358.75;4997056;28;45439;-60
2021/11/05 00:29:25;;;;;;;;;9.75;7.75;;;;;20.74;41.93;101370.16;4997090;28;45420;-48
2021/11/05 00:31:50;;;;;;;;;8.00;7.50;;;;;20.73;41.41;101373.72;4996955;28;46222;-47
2021/11/05 00:34:17;;;;;;;;;9.50;8.00;;;;;20.72;41.61;101369.38;4996691;28;45337;-52
2021/11/05 00:36:44;;;;;;;;;9.00;7.00;;;;;20.70;41.73;101365.03;4996813;28;45435;-59
2021/11/05 00:39:10;;;;;;;;;8.50;7.50;;;;;20.70;41.28;101365.03;4979570;28;45543;-55
2021/11/05 00:41:35;;;;;;;;;6.50;6.00;;;;;20.67;41.34;101364.31;4996680;28;45350;-61
2021/11/05 00:44:01;;;;;;;;;8.50;7.75;;;;;20.69;41.49;101367.75;4996415;28;45288;-61
2021/11/05 00:46:26;;;;;;;;;6.00;4.75;;;;;20.68;41.76;101376.56;4996539;28;45294;-58
2021/11/05 00:48:51;;;;;;;;;6.75;6.00;;;;;20.64;41.60;101375.00;4995932;28;45533;-60
2021/11/05 00:51:17;;;;;;;;;8.25;7.00;;;;;20.66;42.09;101384.56;4996498;28;47174;-61
2021/11/05 00:53:42;;;;;;;;;8.50;7.25;;;;;20.64;41.77;101383.78;4996517;28;45381;-60
2021/11/05 00:56:07;;;;;;;;;9.25;7.00;;;;;20.62;41.65;101382.97;4996625;28;45372;-61
2021/11/05 00:58:33;;;;;;;;;8.00;5.25;;;;;20.63;41.57;101384.69;4996729;28;45658;-60
2021/11/05 01:00:58;;;;;;;;;8.50;5.75;;;;;20.62;41.86;101392.66;4978635;28;47192;-61
2021/11/05 01:03:23;;;;;;;;;9.00;6.00;;;;;20.63;41.92;101392.59;4996216;28;47099;-60
2021/11/05 01:05:49;;;;;;;;;9.00;7.00;;;;;20.63;41.45;101397.00;4978863;28;45387;-56
2021/11/05 01:08:14;;;;;;;;;10.00;7.00;;;;;20.59;41.43;101396.28;4996437;28;45684;-60
2021/11/05 01:10:39;;;;;;;;;6.00;5.00;;;;;20.60;41.68;101405.91;4996217;28;46188;-61
2021/11/05 01:13:07;;;;;;;;;6.25;5.00;;;;;20.61;41.66;101409.41;4996198;28;45503;-60
2021/11/05 01:15:33;;;;;;;;;6.00;6.00;;;;;20.60;41.39;101408.53;4996320;28;45362;-58
2021/11/05 01:17:58;;;;;;;;;5.25;5.25;;;;;20.60;41.47;101416.44;4978781;28;45642;-61
2021/11/05 01:20:24;;;;;;;;;8.50;7.00;;;;;20.57;41.39;101411.28;4996334;28;46655;-56
2021/11/05 01:22:50;;;;;;;;;6.50;6.50;;;;;20.58;41.42;101414.81;4996080;28;45477;-60
2021/11/05 01:25:15;;;;;;;;;5.75;4.25;;;;;20.57;41.95;101416.56;4996145;28;45447;-54
2021/11/05 01:27:46;;;;;;;;;4.00;3.00;;;;;20.58;41.72;101418.28;4996499;28;45377;-60
2021/11/05 01:30:14;;;;;;;;;6.00;5.50;;;;;20.57;41.25;101419.19;4996041;28;46790;-54
2021/11/05 01:32:40;;;;;;;;;4.50;4.50;;;;;20.57;41.93;101419.19;4996090;28;45851;-57
2021/11/05 01:35:07;;;;;;;;;7.00;5.00;;;;;20.55;41.33;101421.06;4996145;28;45259;-57
2021/11/05 01:37:33;;;;;;;;;7.25;5.50;;;;;20.54;41.74;101422.00;4996296;28;45216;-48
2021/11/05 01:39:58;;;;;;;;;3.00;3.00;;;;;20.55;41.60;101423.72;4995895;28;46388;-60
2021/11/05 01:42:24;;;;;;;;;5.00;4.00;;;;;20.54;41.50;101427.25;4996188;28;45438;-60
2021/11/05 01:44:50;;;;;;;;;3.25;3.00;;;;;20.54;41.95;101440.44;4996046;28;45299;-59
2021/11/05 01:47:18;;;;;;;;;2.50;2.50;;;;;20.53;41.72;101434.28;4978408;28;45378;-61
2021/11/05 01:49:43;;;;;;;;;6.00;5.00;;;;;20.53;41.68;101426.38;4995752;28;47398;-61
2021/11/05 01:52:09;;;;;;;;;4.75;3.75;;;;;20.53;41.44;101441.34;4995817;28;45360;-60
2021/11/05 01:54:34;;;;;;;;;7.25;5.25;;;;;20.51;41.73;101437.94;4995883;28;45384;-61
2021/11/05 01:56:59;;;;;;;;;3.75;3.50;;;;;20.51;41.83;101441.41;4999371;28;45300;-57
2021/11/05 01:59:26;;;;;;;;;5.00;5.00;;;;;20.50;41.47;101437.09;4999297;28;46511;-61
2021/11/05 02:01:53;;;;;;;;;4.00;4.00;;;;;20.51;41.40;101437.94;4981382;28;45780;-60
2021/11/05 02:04:18;;;;;;;;;3.25;3.25;;;;;20.48;41.48;101438.94;4999020;28;45192;-57
2021/11/05 02:06:46;;;;;;;;;4.50;3.50;;;;;20.50;41.84;101444.13;4999316;28;45619;-61
2021/11/05 02:09:17;;;;;;;;;4.50;4.50;;;;;20.47;41.51;101442.47;4981044;28;46479;-61
2021/11/05 02:11:43;;;;;;;;;3.00;3.00;;;;;20.48;41.35;101449.47;4998883;28;45682;-56
2021/11/05 02:14:14;;;;;;;;;4.00;3.00;;;;;20.49;42.00;101458.19;4999074;28;45488;-58
2021/11/05 02:16:45;;;;;;;;;4.75;4.75;;;;;20.49;41.64;101455.56;4999134;28;45556;-60
2021/11/05 02:19:13;;;;;;;;;4.00;3.00;;;;;20.48;41.74;101452.09;4998799;28;45509;-60
2021/11/05 02:21:40;;;;;;;;;3.00;3.00;;;;;20.48;41.90;101454.72;4998773;28;45617;-51
2021/11/05 02:24:06;;;;;;;;;2.75;2.75;;;;;20.46;41.36;101460.97;4998872;28;45371;-60
2021/11/05 02:26:32;;;;;;;;;3.00;3.00;;;;;20.45;41.62;101465.38;4998909;28;45387;-55
2021/11/05 02:28:57;;;;;;;;;3.00;3.00;;;;;20.44;41.61;101463.69;4981294;28;47482;-57
2021/11/05 02:31:23;;;;;;;;;4.00;3.00;;;;;20.46;41.89;101467.09;4998646;28;45352;-55
2021/11/05 02:33:48;;;;;;;;;4.00;2.25;;;;;20.45;41.33;101460.13;4981113;28;45259;-51
2021/11/05 02:36:14;;;;;;;;;2.75;2.25;;;;;20.45;41.55;101469.81;4999039;28;45428;-60
2021/11/05 02:38:39;;;;;;;;;3.25;3.25;;;;;20.45;41.77;101469.81;4997214;28;48228;-56
2021/11/05 02:41:04;;;;;;;;;4.50;3.25;;;;;20.44;41.51;101473.38;4998498;28;45361;-52
2021/11/05 02:43:30;;;;;;;;;5.75;3.00;;;;;20.44;41.53;101478.63;4998770;28;45402;-48
2021/11/05 02:45:56;;;;;;;;;3.75;2.75;;;;;20.46;41.46;101487.28;4998651;28;45441;-53
2021/11/05 02:48:22;;;;;;;;;5.00;3.25;;;;;20.44;41.37;101478.63;4998365;28;45699;-54
2021/11/05 02:50:48;;;;;;;;;2.00;2.00;;;;;20.44;41.43;101478.63;4998361;28;45372;-61
2021/11/05 02:53:14;;;;;;;;;2.00;2.00;;;;;20.42;41.83;101475.22;4998456;28;45377;-51
2021/11/05 02:55:39;;;;;;;;;3.25;2.00;;;;;20.43;41.42;101482.19;4998591;28;45237;-56
2021/11/05 02:58:05;;;;;;;;;2.75;2.75;;;;;20.42;41.90;101481.31;4997997;28;46743;-60
2021/11/05 03:00:31;;;;;;;;;3.00;2.00;;;;;20.42;41.36;101477.84;4998575;28;45893;-60
2021/11/05 03:02:57;;;;;;;;;3.75;3.75;;;;;20.42;41.64;101488.38;4998327;28;45262;-59
2021/11/05 03:05:22;;;;;;;;;4.25;2.50;;;;;20.41;41.28;101491.94;4998288;28;45249;-61
2021/11/05 03:07:48;;;;;;;;;3.00;2.75;;;;;20.42;41.23;101498.91;4996984;28;45500;-60
2021/11/05 03:10:15;;;;;;;;;1.75;1.75;;;;;20.41;41.64;101494.56;4997905;28;45440;-61
2021/11/05 03:12:42;;;;;;;;;2.00;2.00;;;;;20.41;41.42;101499.81;4998169;28;45429;-58
2021/11/05 03:15:08;;;;;;;;;4.00;4.00;;;;;20.41;41.68;101499.81;4998283;28;45566;-61
2021/11/05 03:17:35;;;;;;;;;2.00;2.00;;;;;20.39;41.66;101497.28;4997795;28;46061;-56
2021/11/05 03:20:00;;;;;;;;;3.00;2.00;;;;;20.40;41.36;101509.50;4998191;28;45781;-52
2021/11/05 03:22:26;;;;;;;;;3.00;3.00;;;;;20.38;41.91;101501.66;4997875;28;45188;-57
2021/11/05 03:24:52;;;;;;;;;2.75;2.00;;;;;20.37;41.93;101499.94;4998013;28;45516;-58
2021/11/05 03:27:17;;;;;;;;;2.00;2.00;;;;;20.40;41.50;101514.75;4997539;28;45720;-59
2021/11/05 03:29:43;;;;;;;;;3.25;1.75;;;;;20.41;41.49;101515.63;4997692;28;45259;-59
2021/11/05 03:32:09;;;;;;;;;2.00;2.00;;;;;20.44;41.62;101518.13;4997860;28;45676;-61
2021/11/05 03:34:34;;;;;;;;;2.75;2.75;;;;;20.49;41.91;101516.13;4997925;28;45433;-55
2021/11/05 03:36:59;;;;;;;;;4.00;2.00;;;;;20.52;41.95;101524.75;4997814;28;46615;-55
2021/11/05 03:39:25;;;;;;;;;2.75;2.00;;;;;20.55;41.92;101524.63;4979769;28;45514;-60
2021/11/05 03:41:50;;;;;;;;;4.00;3.00;;;;;20.63;41.71;101523.41;4997692;28;45682;-59
2021/11/05 03:44:16;;;;;;;;;0.00;0.00;;;;;20.66;41.41;101526.78;4997719;28;45466;-60
2021/11/05 03:46:41;;;;;;;;;2.00;2.00;;;;;20.72;41.58;101533.56;4997367;28;46187;-59
2021/11/05 03:49:07;;;;;;;;;2.50;2.00;;;;;20.76;41.42;101535.16;4997433;28;45345;-57
2021/11/05 03:51:32;;;;;;;;;2.00;2.00;;;;;20.82;41.67;101544.56;4997823;28;45387;-60
2021/11/05 03:53:58;;;;;;;;;2.25;1.75;;;;;20.82;41.42;101541.91;4980011;28;45351;-61
2021/11/05 03:56:24;;;;;;;;;2.50;1.25;;;;;20.89;41.79;101547.75;4979628;28;48237;-61
2021/11/05 03:58:50;;;;;;;;;2.00;2.00;;;;;20.95;41.60;101563.28;4997354;28;45692;-61
2021/11/05 04:01:16;;;;;;;;;1.75;1.75;;;;;20.99;41.47;101562.22;4997519;28;45313;-60
2021/11/05 04:03:41;;;;;;;;;1.00;1.00;;;;;21.00;41.31;101562.16;4997227;28;45859;-61
2021/11/05 04:06:07;;;;;;;;;1.00;1.00;;;;;21.03;41.65;101555.91;4995887;28;48274;-60
2021/11/05 04:08:32;;;;;;;;;4.00;2.25;;;;;21.08;41.22;101568.88;4997408;28;45263;-60
2021/11/05 04:10:59;;;;;;;;;3.25;1.00;;;;;21.11;41.88;101571.38;4997177;28;45401;-56
2021/11/05 04:13:25;;;;;;;;;0.00;0.00;;;;;21.12;41.20;101575.69;4997307;28;45370;-61
2021/11/05 04:15:50;;;;;;;;;4.00;3.00;;;;;21.13;40.92;101582.66;4996896;28;45401;-61
2021/11/05 04:18:16;;;;;;;;;2.00;1.00;;;;;21.16;41.26;101587.81;4996367;28;45424;-60
2021/11/05 04:20:41;;;;;;;;;5.50;1.00;;;;;21.16;41.22;101588.69;4997050;28;45362;-61
2021/11/05 04:23:06;;;;;;;;;1.00;1.00;;;;;21.20;41.04;101594.66;4996986;28;45447;-58
2021/11/05 04:25:34;;;;;;;;;1.75;1.00;;;;;21.20;41.12;101602.56;4997029;28;45701;-55
2021/11/05 04:28:00;;;;;;;;;3.75;2.00;;;;;21.22;41.07;101607.75;4996819;28;45343;-61
2021/11/05 04:30:25;;;;;;;;;2.25;2.00;;;;;21.21;40.76;101598.13;4979270;28;45377;-59
2021/11/05 04:32:51;;;;;;;;;1.00;1.00;;;;;21.19;40.80;101608.78;4997145;28;45541;-52
2021/11/05 04:35:16;;;;;;;;;1.75;1.00;;;;;21.21;41.00;101603.41;4996469;28;46588;-52
2021/11/05 04:37:41;;;;;;;;;1.00;1.00;;;;;21.21;40.88;101606.91;4996794;28;45323;-57
2021/11/05 04:40:07;;;;;;;;;2.75;1.25;;;;;21.23;41.00;101614.75;4996782;28;45222;-52
2021/11/05 04:42:33;;;;;;;;;3.00;1.25;;;;;21.23;40.83;101618.22;4997227;28;45466;-60
2021/11/05 04:44:58;;;;;;;;;1.75;1.00;;;;;21.24;41.09;101629.66;4996585;28;46233;-52
2021/11/05 04:47:23;;;;;;;;;1.00;1.00;;;;;21.24;40.99;101633.13;4996544;28;45203;-61
2021/11/05 04:49:49;;;;;;;;;2.25;2.25;;;;;21.24;40.95;101633.13;4996483;28;46378;-61
2021/11/05 04:52:14;;;;;;;;;0.75;0.75;;;;;21.24;40.85;101634.91;4997016;28;45631;-52
2021/11/05 04:54:39;;;;;;;;;2.00;1.00;;;;;21.24;40.66;101638.38;4996542;28;46476;-54
2021/11/05 04:57:05;;;;;;;;;2.50;1.00;;;;;21.24;40.82;101638.38;4996922;28;45494;-57
2021/11/05 04:59:30;;;;;;;;;2.00;1.00;;;;;21.23;41.31;101647.22;4996796;28;45384;-51
2021/11/05 05:01:56;;;;;;;;;0.00;0.00;;;;;21.21;40.95;101641.19;4996760;28;45675;-51
2021/11/05 05:04:21;;;;;;;;;1.00;1.00;;;;;21.21;40.97;101643.84;4996277;28;46507;-51
2021/11/05 05:06:47;;;;;;;;;1.00;1.00;;;;;21.21;41.01;101648.22;4996439;28;45477;-50
2021/11/05 05:09:12;;;;;;;;;1.25;1.25;;;;;21.21;40.81;101649.09;4996583;28;45341;-54
2021/11/05 05:11:38;;;;;;;;;1.00;1.00;;;;;21.19;40.76;101650.94;4997019;28;45555;-48
2021/11/05 05:14:03;;;;;;;;;1.25;1.25;;;;;21.19;40.77;101656.22;4996700;28;45378;-52
2021/11/05 05:16:28;;;;;;;;;1.25;1.25;;;;;21.20;40.50;101657.06;4978895;28;45345;-56
2021/11/05 05:18:54;;;;;;;;;3.25;1.00;;;;;21.16;40.90;101656.34;4996609;28;45551;-45
2021/11/05 05:21:19;;;;;;;;;1.50;1.00;;;;;21.18;40.95;101662.41;4996633;28;45649;-50
2021/11/05 05:23:44;;;;;;;;;1.50;1.00;;;;;21.14;40.92;101656.44;4996029;28;46454;-46
2021/11/05 05:26:10;;;;;;;;;1.00;1.00;;;;;21.16;41.02;101666.88;4996056;28;46439;-47
2021/11/05 05:28:35;;;;;;;;;1.00;1.00;;;;;21.14;40.70;101664.34;4996684;28;45298;-48
2021/11/05 05:31:04;;;;;;;;;2.00;1.00;;;;;21.15;40.84;101665.19;4998691;28;45224;-48
2021/11/05 05:33:30;;;;;;;;;0.50;0.50;;;;;21.12;41.10;101667.94;4999482;28;45574;-45
2021/11/05 05:35:55;;;;;;;;;1.00;1.00;;;;;21.13;40.99;101670.53;4981762;28;45814;-47
2021/11/05 05:38:21;;;;;;;;;1.00;1.00;;;;;21.13;40.62;101681.06;4999490;28;45459;-50
2021/11/05 05:40:46;;;;;;;;;1.00;1.00;;;;;21.12;41.03;101678.47;4999740;28;45487;-48
2021/11/05 05:43:12;;;;;;;;;0.00;0.00;;;;;21.12;40.87;101682.00;4981632;28;47334;-48
2021/11/05 05:45:37;;;;;;;;;2.00;2.00;;;;;21.12;40.80;101686.41;4999557;28;45270;-46
2021/11/05 05:48:03;;;;;;;;;1.50;0.50;;;;;21.11;40.66;101689.97;4999503;28;45406;-45
2021/11/05 05:50:28;;;;;;;;;0.00;0.00;;;;;21.11;40.53;101698.72;4999579;28;45466;-48
2021/11/05 05:52:53;;;;;;;;;0.75;0.75;;;;;21.10;40.52;101698.81;4998887;28;46321;-46
2021/11/05 05:55:19;;;;;;;;;0.00;0.00;;;;;21.09;40.58;101694.47;4999324;28;45411;-55
2021/11/05 05:57:44;;;;;;;;;2.00;0.00;;;;;21.09;40.61;101697.09;4999295;28;45266;-47
2021/11/05 06:00:12;;;;;;;;;2.00;1.00;;;;;21.10;40.60;101701.44;4999759;28;45252;-47
2021/11/05 06:02:38;;;;;;;;;1.50;1.00;;;;;21.08;41.00;101713.84;4999176;28;45280;-48
2021/11/05 06:05:04;;;;;;;;;2.00;0.25;;;;;21.06;40.61;101708.59;4998771;28;45444;-48
2021/11/05 06:07:29;;;;;;;;;1.00;1.00;;;;;21.05;40.57;101703.41;4999078;28;45468;-44
2021/11/05 06:09:55;;;;;;;;;2.50;1.00;;;;;21.03;40.93;101715.78;4999184;28;45631;-53
2021/11/05 06:12:21;;;;;;;;;0.75;0.75;;;;;21.03;40.66;101715.78;4998778;28;46621;-45
2021/11/05 06:14:46;;;;;;;;;0.75;0.75;;;;;21.03;41.38;101728.97;4998829;28;45307;-46
2021/11/05 06:17:12;;;;;;;;;1.50;1.50;;;;;21.01;41.04;101729.91;4999000;28;45372;-52
2021/11/05 06:19:37;;;;;;;;;0.50;0.00;;;;;21.00;40.81;101729.97;4999382;28;45296;-46
2021/11/05 06:22:04;;;;;;;;;1.00;1.00;;;;;20.98;40.71;101735.31;4998643;28;46550;-51
2021/11/05 06:24:30;;;;;;;;;1.75;0.75;;;;;20.96;40.81;101723.97;4998662;28;45448;-55
2021/11/05 06:26:55;;;;;;;;;1.25;1.00;;;;;20.97;40.95;101736.25;4998821;28;45312;-59
2021/11/05 06:29:20;;;;;;;;;2.00;0.75;;;;;20.97;40.85;101736.25;4997655;28;45260;-54
2021/11/05 06:31:46;;;;;;;;;1.00;1.00;;;;;20.95;40.68;101748.63;4998540;28;45282;-53
2021/11/05 06:34:11;;;;;;;;;1.00;0.50;;;;;20.90;40.43;101740.03;4998845;28;45311;-57
2021/11/05 06:36:36;;;;;;;;;0.00;0.00;;;;;20.92;40.90;101754.00;4998989;28;45851;-59
2021/11/05 06:39:04;;;;;;;;;1.00;1.00;;;;;20.95;40.59;101760.91;4998658;28;45287;-59
2021/11/05 06:41:30;;;;;;;;;2.00;1.75;;;;;20.93;40.91;101762.78;4998284;28;46367;-60
2021/11/05 06:43:56;;;;;;;;;2.25;0.75;;;;;20.90;40.62;101763.75;4998379;28;45361;-56
2021/11/05 06:46:22;;;;;;;;;0.75;0.75;;;;;20.89;40.66;101762.03;4998614;28;45357;-53
2021/11/05 06:48:48;;;;;;;;;0.00;0.00;;;;;20.87;40.72;101766.53;4998766;28;45294;-55
2021/11/05 06:51:13;;;;;;;;;1.25;1.00;;;;;20.88;40.99;101778.81;4998183;28;45376;-51
2021/11/05 06:53:38;;;;;;;;;1.00;1.00;;;;;20.87;40.60;101789.38;4998305;28;45409;-53
2021/11/05 06:56:05;;;;;;;;;0.00;0.00;;;;;20.87;40.57;101787.63;4980702;28;45369;-56
2021/11/05 06:58:35;;;;;;;;;1.50;1.50;;;;;20.85;40.65;101794.72;4998522;28;45543;-58
2021/11/05 07:01:01;;;;;;;;;1.00;1.00;;;;;20.84;40.34;101798.28;4997911;28;46569;-56
2021/11/05 07:03:27;;;;;;;;;2.00;0.00;;;;;20.82;40.44;101802.75;4980149;28;45827;-53
2021/11/05 07:05:52;;;;;;;;;1.00;1.00;;;;;20.82;40.94;101811.53;4998085;28;45338;-58
2021/11/05 07:08:17;;;;;;;;;1.25;1.00;;;;;20.82;40.84;101811.53;4998307;28;45380;-52
2021/11/05 07:10:45;;;;;;;;;2.75;1.00;;;;;20.80;40.51;101810.72;4998338;28;46348;-46
2021/11/05 07:13:11;;;;;;;;;2.00;1.00;;;;;20.81;40.41;101825.63;4998265;28;45198;-57
2021/11/05 07:15:36;;;;;;;;;3.75;1.00;;;;;20.78;40.78;101824.91;4998125;28;45177;-56
2021/11/05 07:18:01;;;;;;;;;0.75;0.75;;;;;20.80;40.65;101833.56;4998257;28;45322;-55
2021/11/05 07:20:27;;;;;;;;;1.00;1.00;;;;;20.76;40.33;101826.72;4997709;28;45510;-52
2021/11/05 07:22:53;;;;;;;;;0.25;0.25;;;;;20.75;40.59;101839.03;4997919;28;45307;-51
2021/11/05 07:25:19;;;;;;;;;0.00;0.00;;;;;20.77;40.86;101839.81;4998150;28;45212;-52
2021/11/05 07:27:44;;;;;;;;;0.75;0.75;;;;;20.76;40.83;101842.53;4980762;28;45755;-55
2021/11/05 07:30:12;;;;;;;;;1.00;1.00;;;;;20.75;40.73;101852.19;4998079;28;45409;-50
2021/11/05 07:32:44;;;;;;;;;2.50;1.75;;;;;20.76;40.37;101847.81;4997816;28;45694;-56
2021/11/05 07:35:10;;;;;;;;;1.75;0.00;;;;;20.73;40.55;101854.00;4997784;28;45421;-54
2021/11/05 07:37:35;;;;;;;;;1.00;0.50;;;;;20.74;40.75;101868.03;4997983;28;45460;-54
2021/11/05 07:40:01;;;;;;;;;2.00;0.00;;;;;20.72;40.48;101861.97;4997454;28;46160;-55
2021/11/05 07:42:28;;;;;;;;;1.00;1.00;;;;;20.72;40.64;101865.47;4997418;28;45341;-54
2021/11/05 07:44:54;;;;;;;;;0.00;0.00;;;;;20.69;40.33;101876.97;4997751;28;45456;-46
2021/11/05 07:47:22;;;;;;;;;1.75;0.75;;;;;20.69;40.43;101876.13;4997663;28;45532;-54
2021/11/05 07:49:50;;;;;;;;;1.00;0.00;;;;;20.69;40.81;101882.25;4997298;28;46125;-61
2021/11/05 07:52:18;;;;;;;;;1.00;1.00;;;;;20.70;40.92;101878.69;4997214;28;45424;-56
2021/11/05 07:54:44;;;;;;;;;1.00;1.00;;;;;20.67;40.68;101884.06;4997501;28;45505;-59
2021/11/05 07:57:10;;;;;;;;;0.75;0.75;;;;;20.68;40.57;101882.31;4979984;28;45342;-56
2021/11/05 07:59:35;;;;;;;;;1.00;1.00;;;;;20.68;40.96;101895.50;4997208;28;45265;-59
2021/11/05 08:02:00;;;;;;;;;1.50;1.00;;;;;20.68;40.46;101904.25;4997340;28;45168;-60
2021/11/05 08:04:26;;;;;;;;;0.00;0.00;;;;;20.68;40.46;101912.13;4997087;28;45338;-61
2021/11/05 08:06:51;;;;;;;;;1.00;1.00;;;;;20.67;40.50;101909.56;4997434;28;45475;-57
2021/11/05 08:09:16;;;;;;;;;2.00;0.00;;;;;20.66;40.92;101911.38;4997370;28;45437;-61
2021/11/05 08:11:42;;;;;;;;;3.75;2.00;;;;;20.66;40.52;101916.63;4997271;28;45298;-59
2021/11/05 08:14:07;;;;;;;;;3.25;1.25;;;;;20.66;40.89;101916.63;4997389;28;45401;-60
2021/11/05 08:16:33;;;;;;;;;1.25;1.00;;;;;20.67;40.49;101934.13;4997179;28;45503;-59
2021/11/05 08:18:58;;;;;;;;;0.50;0.50;;;;;20.67;40.62;101933.28;4997035;28;45673;-58
2021/11/05 08:21:23;;;;;;;;;1.00;1.00;;;;;20.66;40.82;101937.72;4996979;28;45237;-51
2021/11/05 08:23:49;;;;;;;;;1.00;1.00;;;;;20.66;40.67;101937.72;4996968;28;45626;-59
2021/11/05 08:26:15;;;;;;;;;1.00;1.00;;;;;20.65;40.22;101940.38;4997488;28;45660;-58
2021/11/05 08:28:43;;;;;;;;;1.00;1.00;;;;;20.65;40.57;101949.16;4996756;28;46547;-59
2021/11/05 08:31:12;;;;;;;;;1.25;1.25;;;;;20.65;40.46;101945.66;4996829;28;45675;-56
2021/11/05 08:33:39;;;;;;;;;1.50;1.00;;;;;20.65;40.72;101941.25;4996935;28;45157;-59
2021/11/05 08:36:06;;;;;;;;;2.25;0.75;;;;;20.64;40.91;101950.06;4979669;28;45375;-60
2021/11/05 08:38:33;;;;;;;;;2.00;1.00;;;;;20.64;40.42;101954.47;4996641;28;46225;-58
2021/11/05 08:40:58;;;;;;;;;1.75;1.50;;;;;20.64;40.29;101957.09;4996837;28;45516;-59
2021/11/05 08:43:30;;;;;;;;;0.75;0.75;;;;;20.64;40.89;101959.72;4979076;28;45454;-59
2021/11/05 08:45:57;;;;;;;;;2.00;1.00;;;;;20.64;40.57;101959.72;4996977;28;45374;-56
2021/11/05 08:48:22;;;;;;;;;1.00;1.00;;;;;20.62;40.36;101967.69;4996576;28;45522;-56
2021/11/05 08:50:49;;;;;;;;;2.00;2.00;;;;;20.61;40.84;101966.00;4997068;28;45369;-59
2021/11/05 08:53:17;;;;;;;;;0.75;0.75;;;;;20.62;40.41;101969.47;4996950;28;45413;-52
2021/11/05 08:55:42;;;;;;;;;4.00;1.00;;;;;20.60;40.68;101977.44;4996855;28;45452;-58
2021/11/05 08:58:08;;;;;;;;;0.50;0.50;;;;;20.61;40.25;101975.69;4978580;28;47226;-60
2021/11/05 09:00:34;;;;;;;;;1.00;1.00;;;;;20.60;40.41;101977.44;4996424;28;45397;-57
2021/11/05 09:03:04;;;;;;;;;1.25;1.25;;;;;20.60;40.48;101980.06;4978937;28;45274;-49
2021/11/05 09:05:30;;;;;;;;;1.00;1.00;;;;;20.60;40.30;101980.06;4998074;28;45402;-58
2021/11/05 09:07:55;;;;;;;;;1.00;1.00;;;;;20.61;40.52;101994.97;4999958;28;46595;-53
2021/11/05 09:10:22;;;;;;;;;1.50;1.50;;;;;20.60;40.39;101990.59;4999846;28;45387;-54
2021/11/05 09:12:48;;;;;;;;;1.25;1.25;;;;;20.59;40.45;101994.16;5000217;28;45422;-56
2021/11/05 09:15:17;;;;;;;;;1.00;1.00;;;;;20.59;40.59;101994.16;5000124;28;45220;-60
2021/11/05 09:17:43;;;;;;;;;1.75;0.75;;;;;20.59;40.69;101996.78;4999609;28;45443;-51
2021/11/05 09:20:10;;;;;;;;;3.25;2.00;;;;;20.61;40.85;102007.28;4999739;28;45377;-56
2021/11/05 09:22:36;;;;;;;;;2.00;1.00;;;;;20.63;40.67;102008.94;4999793;28;45218;-57
2021/11/05 09:25:02;;;;;;;;;1.00;1.00;;;;;20.64;40.90;102010.66;4999905;28;45574;-51
2021/11/05 09:27:29;;;;;;;;;2.00;1.00;;;;;20.67;40.90;102013.16;4999446;28;46408;-52
2021/11/05 09:29:55;;;;;;;;;1.00;1.00;;;;;20.73;40.72;102021.75;4999527;28;45456;-55
2021/11/05 09:32:21;;;;;;;;;1.00;1.00;;;;;20.80;40.94;102024.16;4999665;28;45318;-54
2021/11/05 09:34:47;;;;;;;;;3.00;1.00;;;;;20.84;41.26;102024.88;5000109;28;45274;-47
2021/11/05 09:37:13;;;;;;;;;2.00;2.00;;;;;20.89;40.89;102028.19;4999373;28;46507;-56
2021/11/05 09:39:39;;;;;;;;;2.25;1.00;;;;;20.93;40.94;102024.53;4999435;28;45946;-57
2021/11/05 09:42:05;;;;;;;;;1.00;1.00;;;;;20.99;40.97;102032.22;4999663;28;45246;-61
2021/11/05 09:44:31;;;;;;;;;3.75;1.75;;;;;21.04;40.70;102039.94;4999462;28;45639;-53
2021/11/05 09:47:02;;;;;;;;;1.75;0.75;;;;;21.10;40.39;102041.50;4981714;28;46291;-61
2021/11/05 09:49:28;;;;;;;;;0.00;0.00;;;;;21.11;40.84;102041.41;4999166;28;45807;-60
2021/11/05 09:51:59;;;;;;;;;2.00;2.00;;;;;21.18;40.68;102044.69;4999506;28;45368;-56
2021/11/05 09:54:27;;;;;;;;;0.00;0.00;;;;;21.23;40.68;102053.25;4999008;28;45527;-61
2021/11/05 09:56:53;;;;;;;;;1.75;1.75;;;;;21.25;40.35;102048.78;4999158;28;46344;-54
2021/11/05 09:59:19;;;;;;;;;3.00;2.00;;;;;21.29;40.49;102052.16;4999423;28;45325;-58
2021/11/05 10:01:46;;;;;;;;;1.25;1.25;;;;;21.33;40.84;102056.41;4999230;28;45262;-58
2021/11/05 10:04:12;;;;;;;;;0.00;0.00;;;;;21.36;40.86;102053.66;4999019;28;45421;-56
2021/11/05 10:06:38;;;;;;;;;1.50;1.00;;;;;21.38;40.61;102069.41;4998964;28;46491;-61
2021/11/05 10:09:12;;;;;;;;;1.00;1.00;;;;;21.39;40.86;102063.22;4998873;28;45458;-59
2021/11/05 10:11:37;;;;;;;;;3.00;2.00;;;;;21.42;40.56;102076.28;4999235;28;45233;-55
2021/11/05 10:14:03;;;;;;;;;2.00;2.00;;;;;21.43;40.33;102080.66;4999204;28;45520;-59
2021/11/05 10:16:31;;;;;;;;;1.00;1.00;;;;;21.44;40.58;102083.22;4998397;28;45816;-60
2021/11/05 10:19:01;;;;;;;;;1.75;1.75;;;;;21.44;40.52;102090.28;4998829;28;45417;-58
2021/11/05 10:21:38;;;;;;;;;1.25;1.25;;;;;21.43;40.74;102080.66;4998955;28;45345;-60
2021/11/05 10:24:22;;;;;;;;;1.00;1.00;;;;;21.44;40.29;102082.38;4998743;28;45298;-57
2021/11/05 10:26:49;;;;;;;;;2.75;2.00;;;;;21.46;40.58;102091.03;4998872;28;45420;-56
2021/11/05 10:29:43;;;;;;;;;1.00;1.00;;;;;21.47;40.47;102087.50;4998833;28;45938;-57
2021/11/05 10:32:09;;;;;;;;;1.25;1.25;;;;;21.47;40.43;102093.66;4985891;28;45473;-58
2021/11/05 10:34:54;;;;;;;;;2.00;1.00;;;;;21.47;40.29;102091.00;4998924;28;45570;-59
2021/11/05 10:37:28;;;;;;;;;2.50;1.50;;;;;21.46;40.46;102091.94;4998814;28;47269;-60
2021/11/05 10:39:56;;;;;;;;;1.00;1.00;;;;;21.44;40.25;102087.63;4998957;28;45729;-48
2021/11/05 10:42:36;;;;;;;;;0.00;0.00;;;;;21.46;40.15;102086.66;4998776;28;45383;-59
2021/11/05 10:45:15;;;;;;;;;2.00;1.00;;;;;21.47;40.55;102091.00;4998642;28;45310;-57
2021/11/05 10:47:53;;;;;;;;;1.25;1.00;;;;;21.50;40.58;102102.38;4998260;28;46212;-59
2021/11/05 10:50:24;;;;;;;;;2.25;2.25;;;;;21.48;40.33;102099.78;4998384;28;45767;-58
2021/11/05 10:53:11;;;;;;;;;1.50;1.50;;;;;21.48;40.27;102097.13;4998787;28;45889;-59
2021/11/05 10:55:56;;;;;;;;;2.00;0.00;;;;;21.47;40.47;102100.69;4998370;28;45477;-60
2021/11/05 10:58:34;;;;;;;;;0.75;0.75;;;;;21.46;40.24;102099.84;4998257;28;46587;-60
2021/11/05 11:01:20;;;;;;;;;1.00;1.00;;;;;21.47;40.39;102098.03;4998283;28;45339;-60
2021/11/05 11:03:49;;;;;;;;;0.50;0.50;;;;;21.45;40.50;102100.75;4980124;28;45377;-53
2021/11/05 11:06:18;;;;;;;;;1.00;1.00;;;;;21.44;40.35;102098.19;4998304;28;45401;-59
2021/11/05 11:08:54;;;;;;;;;1.75;1.00;;;;;21.45;40.38;102102.50;4997916;28;46310;-57
2021/11/05 11:11:21;;;;;;;;;1.50;1.50;;;;;21.45;40.76;102105.16;4998012;28;45835;-60
2021/11/05 11:13:50;;;;;;;;;5.25;3.00;;;;;21.45;40.87;102100.75;4998116;28;45447;-60
2021/11/05 11:16:21;;;;;;;;;1.25;1.25;;;;;21.45;40.28;102102.50;4980843;28;45846;-61
2021/11/05 11:19:08;;;;;;;;;1.00;1.00;;;;;21.45;40.66;102095.47;4980081;28;47886;-59
2021/11/05 11:21:40;;;;;;;;;1.50;1.50;;;;;21.44;40.31;102093.75;4997884;28;45243;-60